sensor_id;sensor_type;location;lat;lon;timestamp;P1;durP1;ratioP1;P2;durP2;ratioP2
69951;SDS011;60406;48.408;13.392;2022-08-26T00:02:25;21.13;;;17.83;;
69951;SDS011;60406;48.408;13.392;2022-08-26T00:07:26;21.95;;;17.08;;
69951;SDS011;60406;48.408;13.392;2022-08-26T00:12:27;31.23;;;18.67;;
69951;SDS011;60406;48.408;13.392;2022-08-26T00:17:28;21.65;;;16.35;;
69951;SDS011;60406;48.408;13.392;2022-08-26T00:22:29;22.58;;;17.58;;
69951;SDS011;60406;48.408;13.392;2022-08-26T00:27:30;26.20;;;18.45;;
69951;SDS011;60406;48.408;13.392;2022-08-26T00:32:31;23.60;;;19.13;;
69951;SDS011;60406;48.408;13.392;2022-08-26T00:37:31;31.48;;;21.25;;
69951;SDS011;60406;48.408;13.392;2022-08-26T00:42:32;22.88;;;19.73;;
69951;SDS011;60406;48.408;13.392;2022-08-26T00:47:36;23.67;;;19.33;;
69951;SDS011;60406;48.408;13.392;2022-08-26T00:52:38;26.08;;;17.55;;
69951;SDS011;60406;48.408;13.392;2022-08-26T00:57:39;23.88;;;18.90;;
69951;SDS011;60406;48.408;13.392;2022-08-26T01:02:41;21.95;;;18.40;;
69951;SDS011;60406;48.408;13.392;2022-08-26T01:07:42;23.55;;;18.13;;
69951;SDS011;60406;48.408;13.392;2022-08-26T01:12:51;21.50;;;17.67;;
69951;SDS011;60406;48.408;13.392;2022-08-26T01:17:55;24.83;;;20.75;;
69951;SDS011;60406;48.408;13.392;2022-08-26T01:22:58;29.27;;;22.45;;
69951;SDS011;60406;48.408;13.392;2022-08-26T01:28:02;27.65;;;22.80;;
69951;SDS011;60406;48.408;13.392;2022-08-26T01:33:08;25.80;;;23.05;;
69951;SDS011;60406;48.408;13.392;2022-08-26T01:38:11;33.15;;;27.08;;
69951;SDS011;60406;48.408;13.392;2022-08-26T01:43:14;31.13;;;22.95;;
69951;SDS011;60406;48.408;13.392;2022-08-26T01:48:18;24.75;;;19.50;;
69951;SDS011;60406;48.408;13.392;2022-08-26T01:53:22;28.85;;;20.90;;
69951;SDS011;60406;48.408;13.392;2022-08-26T01:58:25;24.23;;;21.35;;
69951;SDS011;60406;48.408;13.392;2022-08-26T02:03:29;28.35;;;21.33;;
69951;SDS011;60406;48.408;13.392;2022-08-26T02:08:34;27.00;;;20.50;;
69951;SDS011;60406;48.408;13.392;2022-08-26T02:13:42;23.60;;;18.58;;
69951;SDS011;60406;48.408;13.392;2022-08-26T02:18:45;27.98;;;20.83;;
69951;SDS011;60406;48.408;13.392;2022-08-26T02:23:46;26.70;;;22.67;;
69951;SDS011;60406;48.408;13.392;2022-08-26T02:28:51;29.38;;;22.92;;
69951;SDS011;60406;48.408;13.392;2022-08-26T02:34:06;29.75;;;23.25;;
69951;SDS011;60406;48.408;13.392;2022-08-26T02:39:15;33.70;;;20.20;;
69951;SDS011;60406;48.408;13.392;2022-08-26T02:44:16;24.35;;;20.92;;
69951;SDS011;60406;48.408;13.392;2022-08-26T02:49:17;27.65;;;22.65;;
69951;SDS011;60406;48.408;13.392;2022-08-26T02:54:18;23.00;;;20.60;;
69951;SDS011;60406;48.408;13.392;2022-08-26T02:59:20;21.90;;;18.92;;
69951;SDS011;60406;48.408;13.392;2022-08-26T03:04:20;22.02;;;19.73;;
69951;SDS011;60406;48.408;13.392;2022-08-26T03:09:22;30.55;;;22.17;;
69951;SDS011;60406;48.408;13.392;2022-08-26T03:14:23;26.02;;;21.10;;
69951;SDS011;60406;48.408;13.392;2022-08-26T03:19:24;30.48;;;20.83;;
69951;SDS011;60406;48.408;13.392;2022-08-26T03:24:25;23.30;;;17.42;;
69951;SDS011;60406;48.408;13.392;2022-08-26T03:29:26;27.25;;;18.63;;
69951;SDS011;60406;48.408;13.392;2022-08-26T03:34:27;28.13;;;20.30;;
69951;SDS011;60406;48.408;13.392;2022-08-26T03:39:28;20.67;;;16.58;;
69951;SDS011;60406;48.408;13.392;2022-08-26T03:44:29;26.17;;;18.63;;
69951;SDS011;60406;48.408;13.392;2022-08-26T03:49:30;21.70;;;19.45;;
69951;SDS011;60406;48.408;13.392;2022-08-26T03:54:31;26.70;;;21.30;;
69951;SDS011;60406;48.408;13.392;2022-08-26T03:59:32;39.30;;;22.42;;
69951;SDS011;60406;48.408;13.392;2022-08-26T04:04:33;32.03;;;22.92;;
69951;SDS011;60406;48.408;13.392;2022-08-26T04:09:34;27.23;;;21.63;;
69951;SDS011;60406;48.408;13.392;2022-08-26T04:14:35;24.27;;;21.77;;
69951;SDS011;60406;48.408;13.392;2022-08-26T04:19:36;26.02;;;22.40;;
69951;SDS011;60406;48.408;13.392;2022-08-26T04:24:37;22.70;;;20.15;;
69951;SDS011;60406;48.408;13.392;2022-08-26T04:29:38;30.02;;;25.85;;
69951;SDS011;60406;48.408;13.392;2022-08-26T04:34:39;28.05;;;24.02;;
69951;SDS011;60406;48.408;13.392;2022-08-26T04:39:40;24.60;;;22.05;;
69951;SDS011;60406;48.408;13.392;2022-08-26T04:44:41;27.45;;;22.83;;
69951;SDS011;60406;48.408;13.392;2022-08-26T04:49:42;31.70;;;23.33;;
69951;SDS011;60406;48.408;13.392;2022-08-26T04:54:43;31.15;;;21.95;;
69951;SDS011;60406;48.408;13.392;2022-08-26T04:59:44;37.42;;;28.13;;
69951;SDS011;60406;48.408;13.392;2022-08-26T05:04:44;29.88;;;22.70;;
69951;SDS011;60406;48.408;13.392;2022-08-26T05:09:45;30.52;;;21.17;;
69951;SDS011;60406;48.408;13.392;2022-08-26T05:14:46;34.70;;;21.42;;
69951;SDS011;60406;48.408;13.392;2022-08-26T05:19:47;27.88;;;21.20;;
69951;SDS011;60406;48.408;13.392;2022-08-26T05:24:48;27.77;;;21.20;;
69951;SDS011;60406;48.408;13.392;2022-08-26T05:29:49;28.40;;;20.52;;
69951;SDS011;60406;48.408;13.392;2022-08-26T05:34:53;32.10;;;21.75;;
69951;SDS011;60406;48.408;13.392;2022-08-26T05:39:54;27.50;;;21.35;;
69951;SDS011;60406;48.408;13.392;2022-08-26T05:44:55;27.65;;;20.63;;
69951;SDS011;60406;48.408;13.392;2022-08-26T05:49:56;28.20;;;21.65;;
69951;SDS011;60406;48.408;13.392;2022-08-26T05:54:57;30.52;;;22.90;;
69951;SDS011;60406;48.408;13.392;2022-08-26T05:59:58;28.58;;;21.10;;
69951;SDS011;60406;48.408;13.392;2022-08-26T06:04:59;31.50;;;22.27;;
69951;SDS011;60406;48.408;13.392;2022-08-26T06:10:00;29.83;;;22.35;;
69951;SDS011;60406;48.408;13.392;2022-08-26T06:15:00;31.67;;;24.08;;
69951;SDS011;60406;48.408;13.392;2022-08-26T06:20:02;30.48;;;23.45;;
69951;SDS011;60406;48.408;13.392;2022-08-26T06:25:03;26.75;;;23.85;;
69951;SDS011;60406;48.408;13.392;2022-08-26T06:30:04;29.13;;;23.15;;
69951;SDS011;60406;48.408;13.392;2022-08-26T06:35:05;30.17;;;22.42;;
69951;SDS011;60406;48.408;13.392;2022-08-26T06:40:07;32.83;;;22.38;;
69951;SDS011;60406;48.408;13.392;2022-08-26T06:45:08;24.42;;;20.35;;
69951;SDS011;60406;48.408;13.392;2022-08-26T06:50:09;25.08;;;22.45;;
69951;SDS011;60406;48.408;13.392;2022-08-26T06:55:10;26.40;;;22.05;;
69951;SDS011;60406;48.408;13.392;2022-08-26T07:00:11;25.73;;;22.23;;
69951;SDS011;60406;48.408;13.392;2022-08-26T07:05:12;34.88;;;21.83;;
69951;SDS011;60406;48.408;13.392;2022-08-26T07:10:13;28.20;;;22.75;;
69951;SDS011;60406;48.408;13.392;2022-08-26T07:15:14;31.85;;;22.30;;
69951;SDS011;60406;48.408;13.392;2022-08-26T07:20:16;27.42;;;22.13;;
69951;SDS011;60406;48.408;13.392;2022-08-26T07:25:17;26.23;;;22.70;;
69951;SDS011;60406;48.408;13.392;2022-08-26T07:30:19;26.95;;;21.30;;
69951;SDS011;60406;48.408;13.392;2022-08-26T07:35:20;28.05;;;20.38;;
69951;SDS011;60406;48.408;13.392;2022-08-26T07:40:21;32.15;;;22.35;;
69951;SDS011;60406;48.408;13.392;2022-08-26T07:45:22;28.65;;;20.98;;
69951;SDS011;60406;48.408;13.392;2022-08-26T07:50:23;25.10;;;22.45;;
69951;SDS011;60406;48.408;13.392;2022-08-26T07:55:24;29.13;;;23.05;;
69951;SDS011;60406;48.408;13.392;2022-08-26T08:00:25;29.48;;;25.27;;
69951;SDS011;60406;48.408;13.392;2022-08-26T08:05:26;34.97;;;24.80;;
69951;SDS011;60406;48.408;13.392;2022-08-26T08:10:27;31.25;;;25.33;;
69951;SDS011;60406;48.408;13.392;2022-08-26T08:15:28;32.95;;;26.15;;
69951;SDS011;60406;48.408;13.392;2022-08-26T08:20:29;30.63;;;25.40;;
69951;SDS011;60406;48.408;13.392;2022-08-26T08:25:30;29.98;;;25.38;;
69951;SDS011;60406;48.408;13.392;2022-08-26T08:30:32;33.17;;;24.75;;
69951;SDS011;60406;48.408;13.392;2022-08-26T08:35:32;29.67;;;23.95;;
69951;SDS011;60406;48.408;13.392;2022-08-26T08:40:33;30.75;;;24.30;;
69951;SDS011;60406;48.408;13.392;2022-08-26T08:45:46;33.03;;;25.75;;
69951;SDS011;60406;48.408;13.392;2022-08-26T08:50:50;32.90;;;25.85;;
69951;SDS011;60406;48.408;13.392;2022-08-26T08:55:56;36.38;;;25.83;;
69951;SDS011;60406;48.408;13.392;2022-08-26T09:01:01;32.28;;;27.05;;
69951;SDS011;60406;48.408;13.392;2022-08-26T09:06:04;32.17;;;24.52;;
69951;SDS011;60406;48.408;13.392;2022-08-26T09:11:06;30.45;;;22.92;;
69951;SDS011;60406;48.408;13.392;2022-08-26T09:16:12;29.30;;;23.17;;
69951;SDS011;60406;48.408;13.392;2022-08-26T09:21:17;33.38;;;23.85;;
69951;SDS011;60406;48.408;13.392;2022-08-26T09:26:23;31.13;;;23.80;;
69951;SDS011;60406;48.408;13.392;2022-08-26T09:31:39;31.33;;;24.73;;
69951;SDS011;60406;48.408;13.392;2022-08-26T09:36:41;26.48;;;22.10;;
69951;SDS011;60406;48.408;13.392;2022-08-26T09:41:44;28.38;;;19.58;;
69951;SDS011;60406;48.408;13.392;2022-08-26T09:46:50;27.05;;;19.98;;
69951;SDS011;60406;48.408;13.392;2022-08-26T09:57:44;28.60;;;19.50;;
69951;SDS011;60406;48.408;13.392;2022-08-26T10:02:35;35.47;;;21.17;;
69951;SDS011;60406;48.408;13.392;2022-08-26T10:13:03;23.90;;;18.35;;
69951;SDS011;60406;48.408;13.392;2022-08-26T10:18:10;29.25;;;20.50;;
69951;SDS011;60406;48.408;13.392;2022-08-26T10:23:24;23.25;;;18.05;;
69951;SDS011;60406;48.408;13.392;2022-08-26T10:33:39;26.60;;;17.45;;
69951;SDS011;60406;48.408;13.392;2022-08-26T10:38:40;26.92;;;16.85;;
69951;SDS011;60406;48.408;13.392;2022-08-26T10:43:42;21.60;;;17.27;;
69951;SDS011;60406;48.408;13.392;2022-08-26T10:48:50;19.63;;;14.68;;
69951;SDS011;60406;48.408;13.392;2022-08-26T10:53:57;21.30;;;14.40;;
69951;SDS011;60406;48.408;13.392;2022-08-26T10:59:06;16.77;;;14.15;;
69951;SDS011;60406;48.408;13.392;2022-08-26T11:09:46;21.52;;;13.48;;
69951;SDS011;60406;48.408;13.392;2022-08-26T11:14:47;23.60;;;14.23;;
69951;SDS011;60406;48.408;13.392;2022-08-26T11:40:18;17.17;;;14.55;;
69951;SDS011;60406;48.408;13.392;2022-08-26T11:45:33;18.08;;;13.25;;
69951;SDS011;60406;48.408;13.392;2022-08-26T11:50:35;17.45;;;10.90;;
69951;SDS011;60406;48.408;13.392;2022-08-26T11:55:40;18.60;;;11.93;;
69951;SDS011;60406;48.408;13.392;2022-08-26T12:05:46;8.07;;;5.40;;
69951;SDS011;60406;48.408;13.392;2022-08-26T12:10:48;9.20;;;5.40;;
69951;SDS011;60406;48.408;13.392;2022-08-26T12:15:58;30.45;;;8.98;;
69951;SDS011;60406;48.408;13.392;2022-08-26T12:21:03;20.35;;;6.93;;
69951;SDS011;60406;48.408;13.392;2022-08-26T12:36:42;8.18;;;3.78;;
69951;SDS011;60406;48.408;13.392;2022-08-26T12:41:45;6.38;;;3.55;;
69951;SDS011;60406;48.408;13.392;2022-08-26T12:46:48;7.60;;;4.53;;
69951;SDS011;60406;48.408;13.392;2022-08-26T12:51:49;5.50;;;4.10;;
69951;SDS011;60406;48.408;13.392;2022-08-26T12:56:50;8.05;;;4.45;;
69951;SDS011;60406;48.408;13.392;2022-08-26T13:01:51;9.70;;;3.97;;
69951;SDS011;60406;48.408;13.392;2022-08-26T13:07:10;14.60;;;5.30;;
69951;SDS011;60406;48.408;13.392;2022-08-26T13:17:23;10.23;;;4.32;;
69951;SDS011;60406;48.408;13.392;2022-08-26T13:27:26;7.70;;;3.85;;
69951;SDS011;60406;48.408;13.392;2022-08-26T13:32:26;5.65;;;3.67;;
69951;SDS011;60406;48.408;13.392;2022-08-26T13:37:28;7.73;;;4.23;;
69951;SDS011;60406;48.408;13.392;2022-08-26T13:42:28;5.60;;;3.17;;
69951;SDS011;60406;48.408;13.392;2022-08-26T13:47:29;5.97;;;3.30;;
69951;SDS011;60406;48.408;13.392;2022-08-26T13:52:30;9.47;;;4.93;;
69951;SDS011;60406;48.408;13.392;2022-08-26T13:57:31;12.47;;;4.47;;
69951;SDS011;60406;48.408;13.392;2022-08-26T14:02:32;9.20;;;4.63;;
69951;SDS011;60406;48.408;13.392;2022-08-26T14:07:33;5.50;;;4.03;;
69951;SDS011;60406;48.408;13.392;2022-08-26T14:12:33;6.75;;;4.93;;
69951;SDS011;60406;48.408;13.392;2022-08-26T14:17:34;7.20;;;4.60;;
69951;SDS011;60406;48.408;13.392;2022-08-26T14:22:35;7.18;;;4.35;;
69951;SDS011;60406;48.408;13.392;2022-08-26T14:27:36;8.30;;;5.45;;
69951;SDS011;60406;48.408;13.392;2022-08-26T14:32:37;9.00;;;5.72;;
69951;SDS011;60406;48.408;13.392;2022-08-26T14:37:40;8.88;;;5.68;;
69951;SDS011;60406;48.408;13.392;2022-08-26T14:47:45;9.53;;;5.90;;
69951;SDS011;60406;48.408;13.392;2022-08-26T14:52:47;5.97;;;5.35;;
69951;SDS011;60406;48.408;13.392;2022-08-26T14:57:48;8.18;;;5.72;;
69951;SDS011;60406;48.408;13.392;2022-08-26T15:02:49;12.27;;;5.78;;
69951;SDS011;60406;48.408;13.392;2022-08-26T15:07:50;8.73;;;5.87;;
69951;SDS011;60406;48.408;13.392;2022-08-26T15:12:51;13.97;;;6.53;;
69951;SDS011;60406;48.408;13.392;2022-08-26T15:17:52;7.80;;;5.90;;
69951;SDS011;60406;48.408;13.392;2022-08-26T15:22:52;12.10;;;6.07;;
69951;SDS011;60406;48.408;13.392;2022-08-26T15:27:53;13.65;;;6.35;;
69951;SDS011;60406;48.408;13.392;2022-08-26T15:32:54;9.07;;;5.93;;
69951;SDS011;60406;48.408;13.392;2022-08-26T15:42:56;10.97;;;6.43;;
69951;SDS011;60406;48.408;13.392;2022-08-26T15:47:56;9.20;;;5.90;;
69951;SDS011;60406;48.408;13.392;2022-08-26T15:52:57;8.70;;;5.45;;
69951;SDS011;60406;48.408;13.392;2022-08-26T15:57:59;12.90;;;6.18;;
69951;SDS011;60406;48.408;13.392;2022-08-26T16:03:00;10.20;;;5.10;;
69951;SDS011;60406;48.408;13.392;2022-08-26T16:08:00;9.23;;;6.37;;
69951;SDS011;60406;48.408;13.392;2022-08-26T16:13:02;11.33;;;5.87;;
69951;SDS011;60406;48.408;13.392;2022-08-26T16:18:03;11.90;;;6.05;;
69951;SDS011;60406;48.408;13.392;2022-08-26T16:23:05;12.07;;;6.38;;
69951;SDS011;60406;48.408;13.392;2022-08-26T16:28:06;6.05;;;4.55;;
69951;SDS011;60406;48.408;13.392;2022-08-26T16:33:07;6.30;;;4.00;;
69951;SDS011;60406;48.408;13.392;2022-08-26T16:38:08;6.50;;;3.95;;
69951;SDS011;60406;48.408;13.392;2022-08-26T16:43:09;5.50;;;3.38;;
69951;SDS011;60406;48.408;13.392;2022-08-26T16:48:10;3.97;;;3.08;;
69951;SDS011;60406;48.408;13.392;2022-08-26T16:53:11;5.00;;;3.27;;
69951;SDS011;60406;48.408;13.392;2022-08-26T16:58:12;6.65;;;3.60;;
69951;SDS011;60406;48.408;13.392;2022-08-26T17:03:12;7.15;;;4.05;;
69951;SDS011;60406;48.408;13.392;2022-08-26T17:08:13;6.75;;;4.00;;
69951;SDS011;60406;48.408;13.392;2022-08-26T17:13:14;7.13;;;3.92;;
69951;SDS011;60406;48.408;13.392;2022-08-26T17:18:15;5.65;;;4.07;;
69951;SDS011;60406;48.408;13.392;2022-08-26T17:23:16;5.57;;;3.70;;
69951;SDS011;60406;48.408;13.392;2022-08-26T17:28:17;4.43;;;3.40;;
69951;SDS011;60406;48.408;13.392;2022-08-26T17:33:18;6.75;;;3.60;;
69951;SDS011;60406;48.408;13.392;2022-08-26T17:38:19;8.43;;;3.88;;
69951;SDS011;60406;48.408;13.392;2022-08-26T17:43:20;7.13;;;4.55;;
69951;SDS011;60406;48.408;13.392;2022-08-26T17:48:21;4.80;;;3.60;;
69951;SDS011;60406;48.408;13.392;2022-08-26T17:53:22;6.65;;;4.18;;
69951;SDS011;60406;48.408;13.392;2022-08-26T17:58:24;11.93;;;4.28;;
69951;SDS011;60406;48.408;13.392;2022-08-26T18:03:24;4.93;;;4.25;;
69951;SDS011;60406;48.408;13.392;2022-08-26T18:08:25;5.75;;;3.97;;
69951;SDS011;60406;48.408;13.392;2022-08-26T18:13:26;4.93;;;4.38;;
69951;SDS011;60406;48.408;13.392;2022-08-26T18:18:27;9.73;;;5.32;;
69951;SDS011;60406;48.408;13.392;2022-08-26T18:23:28;10.00;;;4.97;;
69951;SDS011;60406;48.408;13.392;2022-08-26T18:28:29;6.22;;;4.78;;
69951;SDS011;60406;48.408;13.392;2022-08-26T18:33:30;9.30;;;4.80;;
69951;SDS011;60406;48.408;13.392;2022-08-26T18:38:31;7.72;;;5.28;;
69951;SDS011;60406;48.408;13.392;2022-08-26T18:43:32;8.63;;;4.90;;
69951;SDS011;60406;48.408;13.392;2022-08-26T18:48:33;7.43;;;5.00;;
69951;SDS011;60406;48.408;13.392;2022-08-26T18:53:34;6.72;;;5.07;;
69951;SDS011;60406;48.408;13.392;2022-08-26T18:58:35;6.53;;;5.28;;
69951;SDS011;60406;48.408;13.392;2022-08-26T19:03:36;7.82;;;5.15;;
69951;SDS011;60406;48.408;13.392;2022-08-26T19:08:37;6.07;;;5.25;;
69951;SDS011;60406;48.408;13.392;2022-08-26T19:13:38;7.82;;;6.30;;
69951;SDS011;60406;48.408;13.392;2022-08-26T19:18:39;6.18;;;5.57;;
69951;SDS011;60406;48.408;13.392;2022-08-26T19:23:39;8.00;;;5.68;;
69951;SDS011;60406;48.408;13.392;2022-08-26T19:28:40;7.70;;;5.18;;
69951;SDS011;60406;48.408;13.392;2022-08-26T19:33:42;9.65;;;6.68;;
69951;SDS011;60406;48.408;13.392;2022-08-26T19:38:43;10.95;;;6.28;;
69951;SDS011;60406;48.408;13.392;2022-08-26T19:43:45;13.75;;;7.05;;
69951;SDS011;60406;48.408;13.392;2022-08-26T19:48:46;11.48;;;7.05;;
69951;SDS011;60406;48.408;13.392;2022-08-26T19:53:47;9.98;;;7.75;;
69951;SDS011;60406;48.408;13.392;2022-08-26T19:58:48;10.68;;;7.40;;
69951;SDS011;60406;48.408;13.392;2022-08-26T20:03:49;10.07;;;7.80;;
69951;SDS011;60406;48.408;13.392;2022-08-26T20:08:50;10.90;;;8.70;;
69951;SDS011;60406;48.408;13.392;2022-08-26T20:13:51;12.38;;;8.40;;
69951;SDS011;60406;48.408;13.392;2022-08-26T20:18:52;12.43;;;8.73;;
69951;SDS011;60406;48.408;13.392;2022-08-26T20:28:55;13.77;;;8.27;;
69951;SDS011;60406;48.408;13.392;2022-08-26T20:33:56;10.50;;;7.22;;
69951;SDS011;60406;48.408;13.392;2022-08-26T20:38:57;11.10;;;7.35;;
69951;SDS011;60406;48.408;13.392;2022-08-26T20:43:58;9.68;;;7.90;;
69951;SDS011;60406;48.408;13.392;2022-08-26T20:48:59;12.15;;;8.25;;
69951;SDS011;60406;48.408;13.392;2022-08-26T20:54:00;10.27;;;8.15;;
69951;SDS011;60406;48.408;13.392;2022-08-26T20:59:01;11.73;;;8.73;;
69951;SDS011;60406;48.408;13.392;2022-08-26T21:04:04;10.52;;;9.02;;
69951;SDS011;60406;48.408;13.392;2022-08-26T21:14:08;13.50;;;8.55;;
69951;SDS011;60406;48.408;13.392;2022-08-26T21:19:10;12.93;;;9.00;;
69951;SDS011;60406;48.408;13.392;2022-08-26T21:24:12;13.45;;;8.45;;
69951;SDS011;60406;48.408;13.392;2022-08-26T21:29:13;13.15;;;9.60;;
69951;SDS011;60406;48.408;13.392;2022-08-26T21:34:15;10.57;;;9.57;;
69951;SDS011;60406;48.408;13.392;2022-08-26T21:39:17;14.02;;;10.48;;
69951;SDS011;60406;48.408;13.392;2022-08-26T21:44:18;13.77;;;10.50;;
69951;SDS011;60406;48.408;13.392;2022-08-26T21:49:19;18.25;;;10.32;;
69951;SDS011;60406;48.408;13.392;2022-08-26T21:54:20;15.90;;;10.93;;
69951;SDS011;60406;48.408;13.392;2022-08-26T21:59:21;17.33;;;11.07;;
69951;SDS011;60406;48.408;13.392;2022-08-26T22:04:23;12.55;;;10.55;;
69951;SDS011;60406;48.408;13.392;2022-08-26T22:09:25;21.73;;;10.68;;
69951;SDS011;60406;48.408;13.392;2022-08-26T22:14:27;12.57;;;10.43;;
69951;SDS011;60406;48.408;13.392;2022-08-26T22:19:28;13.07;;;10.68;;
69951;SDS011;60406;48.408;13.392;2022-08-26T22:24:29;18.90;;;12.27;;
69951;SDS011;60406;48.408;13.392;2022-08-26T22:29:30;13.02;;;10.85;;
69951;SDS011;60406;48.408;13.392;2022-08-26T22:34:31;16.83;;;11.23;;
69951;SDS011;60406;48.408;13.392;2022-08-26T22:39:31;20.27;;;12.85;;
69951;SDS011;60406;48.408;13.392;2022-08-26T22:44:32;19.75;;;13.02;;
69951;SDS011;60406;48.408;13.392;2022-08-26T22:49:33;17.00;;;13.05;;
69951;SDS011;60406;48.408;13.392;2022-08-26T22:54:34;13.77;;;12.27;;
69951;SDS011;60406;48.408;13.392;2022-08-26T22:59:35;21.45;;;13.40;;
69951;SDS011;60406;48.408;13.392;2022-08-26T23:04:36;15.55;;;13.43;;
69951;SDS011;60406;48.408;13.392;2022-08-26T23:09:37;19.70;;;13.65;;
69951;SDS011;60406;48.408;13.392;2022-08-26T23:14:38;19.67;;;14.98;;
69951;SDS011;60406;48.408;13.392;2022-08-26T23:19:38;16.08;;;13.27;;
69951;SDS011;60406;48.408;13.392;2022-08-26T23:24:39;17.10;;;14.80;;
69951;SDS011;60406;48.408;13.392;2022-08-26T23:29:40;23.75;;;14.43;;
69951;SDS011;60406;48.408;13.392;2022-08-26T23:34:41;18.45;;;12.13;;
69951;SDS011;60406;48.408;13.392;2022-08-26T23:39:42;17.35;;;13.95;;
69951;SDS011;60406;48.408;13.392;2022-08-26T23:44:43;18.33;;;14.80;;
69951;SDS011;60406;48.408;13.392;2022-08-26T23:49:44;22.38;;;15.63;;
69951;SDS011;60406;48.408;13.392;2022-08-26T23:54:45;19.33;;;17.25;;
69951;SDS011;60406;48.408;13.392;2022-08-26T23:59:46;19.90;;;15.68;;
